createdAt,value
2023-04-20T00:00:22.033Z,8.60
2023-04-20T00:02:49.513Z,8.60
2023-04-20T00:05:16.693Z,8.60
2023-04-20T00:07:43.740Z,8.50
2023-04-20T00:10:12.634Z,8.40
2023-04-20T00:12:39.631Z,8.40
2023-04-20T00:15:07.977Z,8.40
2023-04-20T00:17:35.037Z,8.40
2023-04-20T00:20:02.131Z,8.30
2023-04-20T00:22:34.060Z,8.30
2023-04-20T00:25:01.191Z,8.30
2023-04-20T00:27:29.639Z,8.20
2023-04-20T00:29:56.746Z,8.10
2023-04-20T00:32:23.765Z,8.20
2023-04-20T00:34:50.817Z,8.10
2023-04-20T00:37:17.729Z,8.00
2023-04-20T00:39:45.294Z,8.00
2023-04-20T00:42:12.176Z,8.00
2023-04-20T00:44:40.875Z,7.90
2023-04-20T00:47:07.900Z,7.90
2023-04-20T00:49:54.718Z,7.90
2023-04-20T00:56:19.413Z,7.90
2023-04-20T00:58:46.858Z,7.90
2023-04-20T01:01:20.531Z,7.90
2023-04-20T01:03:47.834Z,7.80
2023-04-20T01:06:16.189Z,7.80
2023-04-20T01:08:48.248Z,7.80
2023-04-20T01:11:15.745Z,7.80
2023-04-20T01:13:43.266Z,7.80
2023-04-20T01:16:11.809Z,7.70
2023-04-20T01:18:46.155Z,7.80
2023-04-20T01:21:14.010Z,7.80
2023-04-20T01:23:42.981Z,7.70
2023-04-20T01:26:11.640Z,7.70
2023-04-20T01:28:38.790Z,7.70
2023-04-20T01:31:07.707Z,7.80
2023-04-20T01:33:35.668Z,7.70
2023-04-20T01:36:02.937Z,7.70
2023-04-20T01:38:32.886Z,7.80
2023-04-20T01:41:03.048Z,7.80
2023-04-20T01:43:50.429Z,7.80
2023-04-20T01:49:31.717Z,7.70
2023-04-20T01:51:59.142Z,7.80
2023-04-20T01:54:26.084Z,7.70
2023-04-20T01:56:57.834Z,7.80
2023-04-20T01:59:25.232Z,7.80
2023-04-20T02:01:52.465Z,7.80
2023-04-20T02:04:20.100Z,7.80
2023-04-20T02:06:47.906Z,7.80
2023-04-20T02:09:15.699Z,7.80
2023-04-20T02:11:43.423Z,7.80
2023-04-20T02:14:12.439Z,7.80
2023-04-20T02:16:40.035Z,7.80
2023-04-20T02:19:08.683Z,7.90
2023-04-20T02:21:43.771Z,7.90
2023-04-20T02:24:11.104Z,7.80
2023-04-20T02:26:41.060Z,7.90
2023-04-20T02:29:08.725Z,7.90
2023-04-20T02:31:37.301Z,7.90
2023-04-20T02:34:06.268Z,7.90
2023-04-20T02:36:33.621Z,7.90
2023-04-20T02:39:00.990Z,7.90
2023-04-20T02:41:28.058Z,7.90
2023-04-20T02:43:55.350Z,7.90
2023-04-20T02:52:44.010Z,7.90
2023-04-20T02:55:11.139Z,7.90
2023-04-20T02:57:38.322Z,7.90
2023-04-20T03:00:09.426Z,8.00
2023-04-20T03:02:37.628Z,8.00
2023-04-20T03:05:05.934Z,8.00
2023-04-20T03:07:33.779Z,7.90
2023-04-20T03:10:02.545Z,7.90
2023-04-20T03:12:31.687Z,7.90
2023-04-20T03:14:59.205Z,8.00
2023-04-20T03:17:26.316Z,8.00
2023-04-20T03:19:53.498Z,8.00
2023-04-20T03:22:20.454Z,8.10
2023-04-20T03:24:47.969Z,8.10
2023-04-20T03:27:16.911Z,8.20
2023-04-20T03:29:43.902Z,8.20
2023-04-20T03:32:14.353Z,8.20
2023-04-20T03:34:41.913Z,8.30
2023-04-20T03:37:08.897Z,8.40
2023-04-20T03:39:36.290Z,8.40
2023-04-20T03:42:03.818Z,8.40
2023-04-20T03:44:32.506Z,8.40
2023-04-20T03:47:00.101Z,8.50
2023-04-20T03:49:30.010Z,8.50
2023-04-20T03:51:57.072Z,8.60
2023-04-20T03:54:25.252Z,8.60
2023-04-20T03:56:52.280Z,8.60
2023-04-20T03:59:19.424Z,8.60
2023-04-20T04:01:50.850Z,8.70
2023-04-20T04:04:18.788Z,8.70
2023-04-20T04:06:46.085Z,8.70
2023-04-20T04:09:13.775Z,8.80
2023-04-20T04:11:43.033Z,8.80
2023-04-20T04:14:10.652Z,8.80
2023-04-20T04:16:38.032Z,8.90
2023-04-20T04:19:07.324Z,8.90
2023-04-20T04:21:34.598Z,8.90
2023-04-20T04:24:05.093Z,8.90
2023-04-20T04:26:33.620Z,8.90
2023-04-20T04:29:00.763Z,8.90
2023-04-20T04:31:32.075Z,8.90
2023-04-20T04:33:59.248Z,8.90
2023-04-20T04:36:27.884Z,9.00
2023-04-20T04:38:55.453Z,9.00
2023-04-20T04:41:46.382Z,9.00
2023-04-20T04:44:21.320Z,9.00
2023-04-20T04:46:48.537Z,9.00
2023-04-20T04:49:16.217Z,9.00
2023-04-20T04:51:45.655Z,9.10
2023-04-20T04:54:12.694Z,9.10
2023-04-20T04:56:40.040Z,9.10
2023-04-20T04:59:07.196Z,9.10
2023-04-20T05:01:34.237Z,9.10
2023-04-20T05:04:01.601Z,9.10
2023-04-20T05:06:28.754Z,9.10
2023-04-20T05:08:57.691Z,9.20
2023-04-20T05:11:24.738Z,9.20
2023-04-20T05:13:52.570Z,9.20
2023-04-20T05:16:19.585Z,9.20
2023-04-20T05:18:47.083Z,9.30
2023-04-20T05:21:14.029Z,9.20
2023-04-20T05:23:41.222Z,9.30
2023-04-20T05:26:09.594Z,9.30
2023-04-20T05:28:36.476Z,9.30
2023-04-20T05:31:03.980Z,9.30
2023-04-20T05:33:30.876Z,9.30
2023-04-20T05:39:56.329Z,9.40
2023-04-20T05:42:24.801Z,9.30
2023-04-20T05:44:53.281Z,9.20
2023-04-20T05:47:20.272Z,9.30
2023-04-20T05:49:47.923Z,9.30
2023-04-20T05:52:14.929Z,9.20
2023-04-20T05:54:42.607Z,9.20
2023-04-20T05:57:09.477Z,9.20
2023-04-20T05:59:56.150Z,9.20
2023-04-20T06:02:23.558Z,9.30
2023-04-20T06:04:50.797Z,9.30
2023-04-20T06:07:20.298Z,9.30
2023-04-20T06:09:47.994Z,9.30
2023-04-20T06:12:15.097Z,9.30
2023-04-20T06:14:44.148Z,9.30
2023-04-20T06:17:14.552Z,9.40
2023-04-20T06:19:47.944Z,9.40
2023-04-20T06:22:16.300Z,9.40
2023-04-20T06:24:46.887Z,9.50
2023-04-20T06:30:40.188Z,9.50
2023-04-20T06:33:07.225Z,9.60
2023-04-20T06:35:34.689Z,9.70
2023-04-20T06:38:02.669Z,9.70
2023-04-20T06:40:29.893Z,9.70
2023-04-20T06:42:57.093Z,9.70
2023-04-20T06:45:35.149Z,9.70
2023-04-20T06:48:30.896Z,9.70
2023-04-20T06:50:59.544Z,9.80
2023-04-20T06:53:29.694Z,9.70
2023-04-20T06:55:57.442Z,9.70
2023-04-20T06:58:54.323Z,9.60
2023-04-20T07:01:36.007Z,9.60
2023-04-20T07:04:05.104Z,9.50
2023-04-20T07:06:32.853Z,9.40
2023-04-20T07:08:59.733Z,9.30
2023-04-20T07:11:26.761Z,9.20
2023-04-20T07:13:53.721Z,9.10
2023-04-20T07:16:20.916Z,9.10
2023-04-20T07:20:01.977Z,9.00
2023-04-20T07:22:30.431Z,9.00
2023-04-20T07:24:57.644Z,8.90
2023-04-20T07:27:24.542Z,9.00
2023-04-20T07:29:51.708Z,8.90
2023-04-20T07:32:18.737Z,8.90
2023-04-20T07:34:45.770Z,8.90
2023-04-20T07:37:12.689Z,8.90
2023-04-20T07:39:41.419Z,8.90
2023-04-20T07:42:08.588Z,8.80
2023-04-20T07:44:37.004Z,8.80
2023-04-20T07:47:04.958Z,8.70
2023-04-20T07:49:31.910Z,8.70
2023-04-20T07:52:09.282Z,8.70
2023-04-20T07:54:42.308Z,8.70
2023-04-20T07:57:16.736Z,8.70
2023-04-20T08:00:03.755Z,8.80
2023-04-20T08:02:35.805Z,8.70
2023-04-20T08:05:03.635Z,8.70
2023-04-20T08:07:31.289Z,8.70
2023-04-20T08:10:01.280Z,8.60
2023-04-20T08:12:54.302Z,8.60
2023-04-20T08:15:38.623Z,8.60
2023-04-20T08:18:06.247Z,8.50
2023-04-20T08:23:06.029Z,8.40
2023-04-20T08:26:08.747Z,8.40
2023-04-20T08:29:22.749Z,8.40
2023-04-20T08:31:51.561Z,8.40
2023-04-20T08:34:19.104Z,8.40
2023-04-20T08:36:46.381Z,8.40
2023-04-20T08:39:15.360Z,8.40
2023-04-20T08:41:43.831Z,8.40
2023-04-20T08:44:11.042Z,8.50
2023-04-20T08:47:06.740Z,8.50
2023-04-20T08:49:55.793Z,8.50
2023-04-20T08:52:22.736Z,8.60
2023-04-20T08:54:56.893Z,8.70
2023-04-20T08:57:26.567Z,8.90
2023-04-20T08:59:53.488Z,9.20
2023-04-20T09:02:21.226Z,9.40
2023-04-20T09:04:49.365Z,9.60
2023-04-20T09:07:21.920Z,9.60
2023-04-20T09:09:55.550Z,9.50
2023-04-20T09:12:24.588Z,9.50
2023-04-20T09:14:53.785Z,9.50
2023-04-20T09:17:33.171Z,9.50
2023-04-20T09:20:08.837Z,9.50
2023-04-20T09:22:37.473Z,9.60
2023-04-20T09:25:20.072Z,9.60
2023-04-20T09:27:56.263Z,9.70
2023-04-20T09:30:24.935Z,9.70
2023-04-20T09:33:01.729Z,9.90
2023-04-20T09:35:29.271Z,10.00
2023-04-20T09:37:56.186Z,10.20
2023-04-20T09:40:25.558Z,10.40
2023-04-20T09:42:54.916Z,10.70
2023-04-20T09:45:22.703Z,10.80
2023-04-20T09:47:52.750Z,10.90
2023-04-20T09:50:29.136Z,10.90
2023-04-20T09:53:01.485Z,11.10
2023-04-20T09:55:31.152Z,11.20
2023-04-20T09:57:59.247Z,11.20
2023-04-20T10:00:26.381Z,11.30
2023-04-20T10:02:55.437Z,11.40
2023-04-20T10:05:36.916Z,11.50
2023-04-20T10:08:04.177Z,11.50
2023-04-20T10:10:43.023Z,11.60
2023-04-20T10:13:09.996Z,11.60
2023-04-20T10:15:38.636Z,11.50
2023-04-20T10:18:18.764Z,11.50
2023-04-20T10:20:46.416Z,11.40
2023-04-20T10:23:18.651Z,11.30
2023-04-20T10:25:57.255Z,11.20
2023-04-20T10:28:24.651Z,11.10
2023-04-20T10:30:53.408Z,11.00
2023-04-20T10:33:22.949Z,11.00
2023-04-20T10:35:51.995Z,10.90
2023-04-20T10:38:29.856Z,10.90
2023-04-20T10:41:07.488Z,10.90
2023-04-20T10:43:43.772Z,10.80
2023-04-20T10:46:16.062Z,10.80
2023-04-20T10:48:56.738Z,10.70
2023-04-20T10:51:24.520Z,10.70
2023-04-20T10:54:02.382Z,10.60
2023-04-20T10:56:37.506Z,10.60
2023-04-20T10:59:08.274Z,10.60
2023-04-20T11:01:35.588Z,10.70
2023-04-20T11:04:04.963Z,10.70
2023-04-20T11:06:32.420Z,10.60
2023-04-20T11:08:59.433Z,10.80
2023-04-20T11:11:28.478Z,11.10
2023-04-20T11:14:06.977Z,11.50
2023-04-20T11:16:47.925Z,11.90
2023-04-20T11:19:25.294Z,11.90
2023-04-20T11:21:55.444Z,12.10
2023-04-20T11:24:23.943Z,12.30
2023-04-20T11:26:53.224Z,12.50
2023-04-20T11:29:35.418Z,12.80
2023-04-20T11:32:05.470Z,13.00
2023-04-20T11:38:32.734Z,13.90
2023-04-20T11:41:07.752Z,14.30
2023-04-20T11:43:36.124Z,14.50
2023-04-20T11:46:03.389Z,14.60
2023-04-20T11:48:31.457Z,14.50
2023-04-20T11:50:58.807Z,14.40
2023-04-20T11:53:25.969Z,14.20
2023-04-20T11:55:56.917Z,14.10
2023-04-20T11:58:24.438Z,13.80
2023-04-20T12:00:51.767Z,13.60
2023-04-20T12:03:20.697Z,13.40
2023-04-20T12:05:48.639Z,13.20
2023-04-20T12:08:17.361Z,12.90
2023-04-20T12:10:44.740Z,12.90
2023-04-20T12:13:16.446Z,12.90
2023-04-20T12:15:43.949Z,12.90
2023-04-20T12:18:11.017Z,12.90
2023-04-20T12:20:38.236Z,13.00
2023-04-20T12:23:05.345Z,13.00
2023-04-20T12:25:32.355Z,13.00
2023-04-20T12:27:59.624Z,12.90
2023-04-20T12:30:28.104Z,12.50
2023-04-20T12:32:55.185Z,12.20
2023-04-20T12:35:22.574Z,12.00
2023-04-20T12:37:52.329Z,11.90
2023-04-20T12:40:22.485Z,11.80
2023-04-20T12:42:49.560Z,11.70
2023-04-20T12:45:16.741Z,11.70
2023-04-20T12:47:47.434Z,11.80
2023-04-20T12:50:17.342Z,11.80
2023-04-20T12:52:44.902Z,11.90
2023-04-20T12:55:11.868Z,11.90
2023-04-20T12:57:39.516Z,11.90
2023-04-20T13:00:08.287Z,11.90
2023-04-20T13:02:35.692Z,11.90
2023-04-20T13:05:04.534Z,11.90
2023-04-20T13:07:31.662Z,11.90
2023-04-20T13:13:02.989Z,12.10
2023-04-20T13:15:39.191Z,12.10
2023-04-20T13:18:07.024Z,12.00
2023-04-20T13:20:36.156Z,11.90
2023-04-20T13:23:07.673Z,11.90
2023-04-20T13:25:35.161Z,12.00
2023-04-20T13:28:03.839Z,12.20
2023-04-20T13:30:31.014Z,12.40
2023-04-20T13:32:58.142Z,12.60
2023-04-20T13:35:25.617Z,12.70
2023-04-20T13:37:54.826Z,12.70
2023-04-20T13:40:22.252Z,12.60
2023-04-20T13:42:49.697Z,12.50
2023-04-20T13:45:19.774Z,12.40
2023-04-20T13:47:47.743Z,12.40
2023-04-20T13:50:14.874Z,12.40
2023-04-20T13:52:42.734Z,12.30
2023-04-20T13:55:12.221Z,12.30
2023-04-20T13:57:39.294Z,12.20
2023-04-20T14:00:08.448Z,12.20
2023-04-20T14:02:36.159Z,12.10
2023-04-20T14:05:07.198Z,12.10
2023-04-20T14:07:34.414Z,12.10
2023-04-20T14:10:01.486Z,12.20
2023-04-20T14:12:29.970Z,12.20
2023-04-20T14:14:58.567Z,12.30
2023-04-20T14:17:26.745Z,12.30
2023-04-20T14:19:54.252Z,12.30
2023-04-20T14:22:21.243Z,12.20
2023-04-20T14:24:48.749Z,12.20
2023-04-20T14:27:17.512Z,12.20
2023-04-20T14:29:45.992Z,12.30
2023-04-20T14:32:14.549Z,12.40
2023-04-20T14:34:41.506Z,12.40
2023-04-20T14:37:09.795Z,12.30
2023-04-20T14:39:39.345Z,12.20
2023-04-20T14:42:10.965Z,12.20
2023-04-20T14:44:41.208Z,12.10
2023-04-20T14:47:09.932Z,12.10
2023-04-20T14:49:37.014Z,12.10
2023-04-20T14:52:04.516Z,12.20
2023-04-20T14:58:43.036Z,12.40
2023-04-20T15:37:57.620Z,13.30
2023-04-20T15:40:42.083Z,13.00
2023-04-20T15:44:38.580Z,13.00
2023-04-20T15:47:08.880Z,13.10
2023-04-20T15:49:41.078Z,13.40
2023-04-20T15:52:11.108Z,13.60
2023-04-20T15:54:44.708Z,13.80
2023-04-20T15:57:13.031Z,13.90
2023-04-20T15:59:42.317Z,13.80
2023-04-20T16:02:09.497Z,13.70
2023-04-20T16:04:40.174Z,13.60
2023-04-20T16:07:10.400Z,13.50
2023-04-20T16:09:37.713Z,13.50
2023-04-20T16:12:07.669Z,13.50
2023-04-20T16:14:36.472Z,13.60
2023-04-20T16:17:03.581Z,13.60
2023-04-20T16:19:31.989Z,13.80
2023-04-20T16:21:59.193Z,13.80
2023-04-20T16:24:26.598Z,13.90
2023-04-20T16:27:02.037Z,13.80
2023-04-20T16:29:29.184Z,13.80
2023-04-20T16:32:02.724Z,13.80
